Time;durP1;ratioP1;P1;durP2;ratioP2;P2;SDS_P1;SDS_P2;PMS_P1;PMS_P2;Temp;Humidity;BMP_temperature;BMP_pressure;BME280_temperature;BME280_humidity;BME280_pressure;Samples;Min_cycle;Max_cycle;Signal;HPM_P1;HPM_P2
2022/12/14 00:01:05;;;;;;;6.88;3.97;;;0.50;73.00;;;;;;5048341;28;20464;-64
2022/12/14 00:03:30;;;;;;;8.13;4.00;;;0.50;72.30;;;;;;5038634;28;20021;-61
2022/12/14 00:05:56;;;;;;;8.43;4.22;;;0.50;72.30;;;;;;5046540;28;20155;-61
2022/12/14 00:08:22;;;;;;;5.72;4.15;;;0.50;72.30;;;;;;5043263;28;20033;-61
2022/12/14 00:10:47;;;;;;;6.65;3.92;;;0.50;72.30;;;;;;5051982;28;20040;-61
2022/12/14 00:13:14;;;;;;;6.85;3.97;;;0.50;72.20;;;;;;5067084;28;20402;-62
2022/12/14 00:15:40;;;;;;;4.57;3.10;;;0.50;72.20;;;;;;5048865;28;20065;-64
2022/12/14 00:18:05;;;;;;;5.50;3.53;;;0.40;72.10;;;;;;5046078;28;20053;-62
2022/12/14 00:20:32;;;;;;;9.65;3.97;;;0.40;72.20;;;;;;5051537;28;20055;-64
2022/12/14 00:22:58;;;;;;;4.80;3.03;;;0.40;72.20;;;;;;5051786;28;20111;-64
2022/12/14 00:25:25;;;;;;;4.28;3.38;;;0.40;72.20;;;;;;5047897;28;20064;-64
2022/12/14 00:27:50;;;;;;;5.72;3.75;;;0.40;72.20;;;;;;5051658;28;20033;-64
2022/12/14 00:30:19;;;;;;;5.70;3.63;;;0.50;72.10;;;;;;5055069;28;20480;-65
2022/12/14 00:32:45;;;;;;;5.03;3.28;;;0.40;72.10;;;;;;5048849;28;20024;-64
2022/12/14 00:35:14;;;;;;;6.63;4.25;;;0.40;72.10;;;;;;5046062;28;20057;-64
2022/12/14 00:37:40;;;;;;;6.10;3.38;;;0.40;72.00;;;;;;5049338;28;20439;-64
2022/12/14 00:40:07;;;;;;;6.75;3.50;;;0.40;72.00;;;;;;5053749;28;20061;-62
2022/12/14 00:42:33;;;;;;;5.72;3.15;;;0.40;72.00;;;;;;5049752;28;20087;-62
2022/12/14 00:45:01;;;;;;;6.03;3.33;;;0.40;72.00;;;;;;5042171;28;20080;-64
2022/12/14 00:47:26;;;;;;;6.28;3.67;;;0.40;72.00;;;;;;5048511;28;20041;-65
2022/12/14 00:49:52;;;;;;;4.00;3.17;;;0.40;72.00;;;;;;5047037;28;20082;-64
2022/12/14 00:52:18;;;;;;;7.95;3.95;;;0.40;72.00;;;;;;5040584;28;20499;-64
2022/12/14 00:54:44;;;;;;;5.93;2.97;;;0.40;72.00;;;;;;5048462;28;20037;-64
2022/12/14 00:57:09;;;;;;;5.50;3.35;;;0.40;72.00;;;;;;5049244;28;20111;-64
2022/12/14 00:59:35;;;;;;;3.75;3.25;;;0.40;71.90;;;;;;5045428;28;20029;-64
2022/12/14 01:02:01;;;;;;;6.10;2.85;;;0.40;71.80;;;;;;5043886;28;20036;-64
2022/12/14 01:04:28;;;;;;;5.07;3.47;;;0.40;71.80;;;;;;5049465;28;20032;-65
2022/12/14 01:06:54;;;;;;;10.32;3.85;;;0.40;71.80;;;;;;5046254;28;20036;-64
2022/12/14 01:09:22;;;;;;;5.88;3.33;;;0.30;71.80;;;;;;5056902;28;20111;-64
2022/12/14 01:11:48;;;;;;;5.88;3.15;;;0.30;71.80;;;;;;5056088;28;20480;-64
2022/12/14 01:14:16;;;;;;;3.85;3.13;;;0.30;71.80;;;;;;5041557;28;20116;-64
2022/12/14 01:16:42;;;;;;;4.55;3.30;;;0.30;71.90;;;;;;5048772;28;20028;-61
2022/12/14 01:19:09;;;;;;;4.30;2.70;;;0.30;71.80;;;;;;5050088;28;20029;-62
2022/12/14 01:21:34;;;;;;;6.55;2.95;;;0.30;71.80;;;;;;5047792;28;20430;-64
2022/12/14 01:24:02;;;;;;;4.45;2.92;;;0.30;71.80;;;;;;5048620;28;20029;-64
2022/12/14 01:26:29;;;;;;;3.20;2.70;;;0.30;71.80;;;;;;5049597;28;20045;-64
2022/12/14 01:28:57;;;;;;;3.85;2.88;;;0.30;71.80;;;;;;5045080;28;20111;-64
2022/12/14 01:31:29;;;;;;;5.88;3.67;;;0.30;72.00;;;;;;5046165;28;20040;-61
2022/12/14 01:33:55;;;;;;;3.67;3.22;;;0.30;71.70;;;;;;5051141;28;20037;-61
2022/12/14 01:36:27;;;;;;;3.97;3.35;;;0.30;71.70;;;;;;5045672;28;20037;-62
2022/12/14 01:38:54;;;;;;;;;;;0.30;71.60;;;;;;5047221;28;20036;-62
2022/12/14 01:41:26;;;;;;;3.22;2.25;;;0.20;71.50;;;;;;5071070;28;19913;-61
2022/12/14 01:44:21;;;;;;;6.97;3.30;;;0.30;71.60;;;;;;5041317;28;20037;-61
2022/12/14 01:47:02;;;;;;;4.88;2.92;;;0.30;71.50;;;;;;5048344;28;20049;-61
2022/12/14 01:49:32;;;;;;;2.45;2.22;;;0.30;71.40;;;;;;5043629;28;20651;-62
2022/12/14 01:52:08;;;;;;;4.60;3.83;;;0.30;71.40;;;;;;5049069;28;20124;-62
2022/12/14 01:54:39;;;;;;;4.40;2.83;;;0.30;71.40;;;;;;5048894;28;20033;-62
2022/12/14 01:57:05;;;;;;;2.53;2.15;;;0.20;71.40;;;;;;5049565;28;20063;-61
2022/12/14 01:59:35;;;;;;;5.63;2.75;;;0.20;71.40;;;;;;5045879;28;20518;-62
2022/12/14 02:02:05;;;;;;;7.03;3.97;;;0.20;71.40;;;;;;5046292;28;20381;-63
2022/12/14 02:04:35;;;;;;;4.85;2.97;;;0.20;71.50;;;;;;5054516;28;20028;-64
2022/12/14 02:07:02;;;;;;;4.32;3.28;;;0.20;71.40;;;;;;5042972;28;20167;-64
2022/12/14 02:09:32;;;;;;;3.72;3.05;;;0.20;71.30;;;;;;5051322;28;20479;-64
2022/12/14 02:12:16;;;;;;;7.07;3.30;;;0.20;71.30;;;;;;5050190;28;20017;-64
2022/12/14 02:14:42;;;;;;;3.03;1.98;;;0.20;71.30;;;;;;5049363;28;20435;-63
2022/12/14 02:17:11;;;;;;;5.05;2.63;;;0.20;71.20;;;;;;5054442;28;20025;-63
2022/12/14 02:19:37;;;;;;;5.65;2.78;;;0.20;71.10;;;;;;5051363;28;20391;-61
2022/12/14 02:22:43;;;;;;;3.53;2.63;;;0.20;71.20;;;;;;5044774;28;20044;-61
2022/12/14 02:25:15;;;;;;;3.35;3.05;;;0.20;71.10;;;;;;5048890;28;20028;-61
2022/12/14 02:27:56;;;;;;;3.33;2.63;;;0.20;71.10;;;;;;5046384;28;20075;-61
2022/12/14 02:30:24;;;;;;;4.85;2.92;;;0.20;71.00;;;;;;5048822;28;20028;-61
2022/12/14 02:33:08;;;;;;;3.28;2.08;;;0.20;71.00;;;;;;5041901;28;20027;-61
2022/12/14 02:35:57;;;;;;;3.88;2.75;;;0.20;71.60;;;;;;5042789;28;20041;-61
2022/12/14 02:38:42;;;;;;;4.70;2.58;;;0.10;70.90;;;;;;5033447;28;20566;-61
2022/12/14 02:41:13;;;;;;;4.25;2.50;;;0.10;70.90;;;;;;5043620;28;20013;-61
2022/12/14 02:44:06;;;;;;;6.60;3.17;;;0.10;70.90;;;;;;5041666;28;20143;-61
2022/12/14 02:46:32;;;;;;;;;;;0.10;70.80;;;;;;5049225;28;20021;-61
2022/12/14 02:49:14;;;;;;;5.75;2.38;;;0.00;70.80;;;;;;5041276;28;19927;-61
2022/12/14 02:51:45;;;;;;;4.57;2.42;;;0.00;70.90;;;;;;5046960;28;20112;-61
2022/12/14 02:54:28;;;;;;;3.42;2.60;;;0.00;70.80;;;;;;5044479;28;20033;-60
2022/12/14 02:57:20;;;;;;;4.25;3.05;;;0.00;70.70;;;;;;5047253;28;20037;-64
2022/12/14 02:59:49;;;;;;;2.47;2.17;;;0.00;70.60;;;;;;5034277;28;20421;-64
2022/12/14 03:02:16;;;;;;;6.13;3.60;;;0.00;70.60;;;;;;5048674;28;20112;-63
2022/12/14 03:04:46;;;;;;;4.38;3.00;;;0.00;70.60;;;;;;5039835;28;20017;-64
2022/12/14 03:07:35;;;;;;;3.15;2.35;;;0.00;70.60;;;;;;5029266;28;20090;-64
2022/12/14 03:10:11;;;;;;;6.03;3.10;;;0.00;70.50;;;;;;5043822;28;20083;-64
2022/12/14 03:12:41;;;;;;;7.25;2.53;;;-0.10;70.50;;;;;;5047450;28;20035;-64
2022/12/14 03:15:10;;;;;;;4.80;2.58;;;-0.10;70.50;;;;;;5047757;28;20472;-64
2022/12/14 03:17:37;;;;;;;4.43;2.00;;;-0.10;70.60;;;;;;5047191;28;20083;-64
2022/12/14 03:20:18;;;;;;;3.95;2.42;;;-0.10;70.60;;;;;;5036767;28;20248;-64
2022/12/14 03:22:48;;;;;;;5.15;3.20;;;-0.10;70.60;;;;;;5051742;28;20052;-64
2022/12/14 03:25:23;;;;;;;4.95;2.35;;;-0.10;70.50;;;;;;5051858;28;20034;-61
2022/12/14 03:27:55;;;;;;;4.85;2.28;;;-0.10;70.60;;;;;;5054612;28;20024;-61
2022/12/14 03:30:21;;;;;;;;;;;-0.20;70.50;;;;;;5051912;28;20379;-61
2022/12/14 03:32:52;;;;;;;3.05;2.30;;;-0.20;70.40;;;;;;5047399;28;19915;-61
2022/12/14 03:35:27;;;;;;;9.10;2.92;;;-0.20;70.60;;;;;;5050226;28;20070;-60
2022/12/14 03:38:17;;;;;;;3.67;2.72;;;-0.20;70.60;;;;;;5055621;28;20033;-60
2022/12/14 03:40:57;;;;;;;4.38;2.55;;;-0.20;70.60;;;;;;5045633;28;20081;-61
2022/12/14 03:44:14;;;;;;;2.03;1.83;;;-0.30;70.50;;;;;;5040468;28;20147;-60
2022/12/14 03:47:01;;;;;;;5.22;2.88;;;-0.30;70.30;;;;;;5034480;28;20065;-62
2022/12/14 03:49:45;;;;;;;3.45;1.83;;;-0.30;70.60;;;;;;5039107;28;20102;-61
2022/12/14 03:52:17;;;;;;;3.80;2.38;;;-0.40;70.60;;;;;;5051064;28;20024;-61
2022/12/14 03:55:12;;;;;;;5.00;2.42;;;-0.40;70.70;;;;;;5050340;28;20426;-61
2022/12/14 03:58:13;;;;;;;4.57;2.35;;;-0.50;70.60;;;;;;5047431;28;20025;-62
2022/12/14 04:00:49;;;;;;;4.38;2.45;;;-0.50;70.60;;;;;;5034472;28;20041;-64
2022/12/14 04:03:18;;;;;;;3.60;2.08;;;-0.50;70.80;;;;;;5047349;28;20029;-65
2022/12/14 04:05:56;;;;;;;4.10;2.25;;;-0.50;70.80;;;;;;5049843;28;20041;-64
2022/12/14 04:08:37;;;;;;;3.15;2.58;;;-0.50;70.90;;;;;;5046224;28;20046;-64
2022/12/14 04:20:08;;;;;;;2.40;1.50;;;-0.60;70.80;;;;;;5038349;28;20048;-64
2022/12/14 04:22:42;;;;;;;3.85;2.60;;;-0.70;70.70;;;;;;5040652;28;20056;-64
2022/12/14 04:31:13;;;;;;;4.10;1.67;;;-0.60;70.50;;;;;;5048826;28;20090;-62
2022/12/14 04:33:45;;;;;;;4.13;2.05;;;-0.60;70.60;;;;;;5042176;28;20115;-64
2022/12/14 04:36:35;;;;;;;2.58;2.05;;;-0.60;70.50;;;;;;5042028;28;20445;-64
2022/12/14 04:39:06;;;;;;;4.45;2.33;;;-0.60;70.40;;;;;;5044986;28;20041;-62
2022/12/14 04:41:42;;;;;;;2.75;2.25;;;-0.60;70.40;;;;;;5050864;28;20043;-61
2022/12/14 04:44:21;;;;;;;4.57;2.10;;;-0.60;70.40;;;;;;5040926;28;20491;-62
2022/12/14 04:46:48;;;;;;;3.35;2.63;;;-0.60;70.30;;;;;;5038858;28;20438;-64
2022/12/14 04:49:23;;;;;;;3.30;1.95;;;-0.60;70.30;;;;;;5046868;28;20123;-64
2022/12/14 04:51:57;;;;;;;2.83;2.53;;;-0.60;70.30;;;;;;5037035;28;20041;-65
2022/12/14 04:54:23;;;;;;;3.03;2.22;;;-0.60;70.20;;;;;;5066932;28;20111;-65
2022/12/14 04:56:59;;;;;;;3.17;2.13;;;-0.60;70.20;;;;;;5036326;28;20040;-65
2022/12/14 04:59:26;;;;;;;4.13;2.17;;;-0.60;70.20;;;;;;5041821;28;20490;-65
2022/12/14 05:01:57;;;;;;;2.65;1.95;;;-0.60;70.20;;;;;;5044104;28;20411;-64
2022/12/14 05:04:53;;;;;;;4.85;2.35;;;-0.60;70.30;;;;;;5053266;28;20043;-65
2022/12/14 05:07:34;;;;;;;4.20;1.85;;;-0.70;70.20;;;;;;5045658;28;20442;-64
2022/12/14 05:10:26;;;;;;;2.38;2.05;;;-0.70;70.20;;;;;;5036133;28;20524;-65
2022/12/14 05:13:12;;;;;;;5.97;2.20;;;-0.70;70.20;;;;;;5034114;28;20045;-62
2022/12/14 05:15:52;;;;;;;2.63;1.73;;;-0.70;70.30;;;;;;5042660;28;20712;-62
2022/12/14 05:18:19;;;;;;;5.63;2.50;;;-0.70;70.40;;;;;;5046255;28;20060;-62
2022/12/14 05:20:46;;;;;;;4.40;1.67;;;-0.70;70.40;;;;;;5053294;28;20434;-62
2022/12/14 05:23:12;;;;;;;2.55;1.77;;;-0.70;70.40;;;;;;5048925;28;20028;-62
2022/12/14 05:25:38;;;;;;;4.80;1.77;;;-0.70;70.40;;;;;;5051268;28;20574;-60
2022/12/14 05:28:04;;;;;;;4.57;1.52;;;-0.70;70.40;;;;;;5047319;28;20105;-61
2022/12/14 05:30:30;;;;;;;3.00;1.88;;;-0.70;70.30;;;;;;5048570;28;20519;-61
2022/12/14 05:32:56;;;;;;;4.07;2.42;;;-0.70;70.30;;;;;;5051475;28;20028;-61
2022/12/14 05:35:22;;;;;;;3.78;2.47;;;-0.70;70.30;;;;;;5047658;28;20408;-64
2022/12/14 05:37:47;;;;;;;5.53;2.10;;;-0.70;70.30;;;;;;5049876;28;20063;-63
2022/12/14 05:40:13;;;;;;;2.58;1.85;;;-0.70;70.30;;;;;;5046057;28;20083;-63
2022/12/14 05:42:39;;;;;;;1.98;1.85;;;-0.80;70.30;;;;;;5049195;28;20119;-63
2022/12/14 05:45:05;;;;;;;2.40;2.08;;;-0.70;70.30;;;;;;5044647;28;20049;-63
2022/12/14 05:47:32;;;;;;;3.97;1.75;;;-0.70;70.20;;;;;;5042203;28;20144;-63
2022/12/14 05:49:58;;;;;;;3.33;2.08;;;-0.70;70.20;;;;;;5047911;28;20486;-63
2022/12/14 05:52:27;;;;;;;4.43;1.95;;;-0.70;70.30;;;;;;5042657;28;20029;-64
2022/12/14 05:54:53;;;;;;;5.78;2.80;;;-0.70;70.30;;;;;;5048310;28;20029;-64
2022/12/14 05:57:19;;;;;;;4.53;2.40;;;-0.70;70.30;;;;;;5038296;28;20082;-63
2022/12/14 05:59:44;;;;;;;3.63;1.83;;;-0.70;70.30;;;;;;5049510;28;20036;-63
2022/12/14 06:02:10;;;;;;;3.88;1.80;;;-0.70;70.30;;;;;;5046502;28;20090;-64
2022/12/14 06:04:36;;;;;;;2.17;1.30;;;-0.70;70.40;;;;;;5047633;28;20107;-64
2022/12/14 06:07:02;;;;;;;1.75;1.48;;;-0.70;70.40;;;;;;5039715;28;20040;-64
2022/12/14 06:09:27;;;;;;;3.95;2.20;;;-0.70;70.30;;;;;;5045995;28;20026;-64
2022/12/14 06:11:53;;;;;;;3.25;2.22;;;-0.70;70.30;;;;;;5043572;28;20052;-64
2022/12/14 06:14:19;;;;;;;3.33;1.88;;;-0.70;70.30;;;;;;5051605;28;20419;-64
2022/12/14 06:16:46;;;;;;;1.38;1.27;;;-0.70;70.20;;;;;;5048823;28;20028;-64
2022/12/14 06:19:13;;;;;;;3.58;2.33;;;-0.80;70.20;;;;;;5047993;28;20086;-64
2022/12/14 06:21:41;;;;;;;2.08;1.88;;;-0.80;70.20;;;;;;5037752;28;20047;-64
2022/12/14 06:24:08;;;;;;;2.83;1.80;;;-0.80;70.20;;;;;;5038578;28;20033;-64
2022/12/14 06:26:39;;;;;;;1.83;1.63;;;-0.80;70.20;;;;;;5054690;28;20175;-61
2022/12/14 06:29:06;;;;;;;2.67;1.88;;;-0.80;70.10;;;;;;5048171;28;20043;-61
2022/12/14 06:31:32;;;;;;;5.88;1.85;;;-0.90;70.10;;;;;;5055495;28;20021;-61
2022/12/14 06:34:00;;;;;;;1.90;1.42;;;-0.90;70.10;;;;;;5046077;28;20037;-61
2022/12/14 06:36:35;;;;;;;3.78;1.42;;;-0.90;70.20;;;;;;5053977;28;20240;-61
2022/12/14 06:39:04;;;;;;;3.60;2.50;;;-1.00;70.20;;;;;;5040819;28;20067;-61
2022/12/14 06:41:30;;;;;;;1.70;1.60;;;-1.00;70.20;;;;;;5051724;28;20104;-61
2022/12/14 06:43:56;;;;;;;2.88;1.92;;;-1.10;70.20;;;;;;5040810;28;20423;-60
2022/12/14 06:46:22;;;;;;;1.42;1.30;;;-1.10;70.20;;;;;;5040657;28;20029;-61
2022/12/14 06:48:53;;;;;;;4.72;1.65;;;-1.10;70.30;;;;;;5049539;28;20044;-63
2022/12/14 06:51:22;;;;;;;4.38;2.13;;;-1.10;70.30;;;;;;5045958;28;20025;-63
2022/12/14 06:53:55;;;;;;;6.28;1.83;;;-1.20;70.20;;;;;;5050908;28;20029;-63
2022/12/14 06:56:23;;;;;;;2.95;1.63;;;-1.20;70.20;;;;;;5050476;28;20525;-64
2022/12/14 06:58:49;;;;;;;3.20;1.70;;;-1.20;70.30;;;;;;5048323;28;20037;-63
2022/12/14 07:01:18;;;;;;;3.38;1.88;;;-1.30;70.20;;;;;;5046301;28;20403;-64
2022/12/14 07:04:05;;;;;;;2.83;1.92;;;-1.30;70.30;;;;;;5052184;28;20075;-63
2022/12/14 07:06:35;;;;;;;1.45;1.17;;;-1.30;70.40;;;;;;5050340;28;20053;-63
2022/12/14 07:09:02;;;;;;;3.20;1.67;;;-1.40;70.40;;;;;;5042676;28;20022;-64
2022/12/14 07:11:29;;;;;;;1.63;1.48;;;-1.50;70.50;;;;;;5048032;28;20471;-63
2022/12/14 07:13:55;;;;;;;2.55;1.20;;;-1.50;70.50;;;;;;5050938;28;20028;-68
2022/12/14 07:16:23;;;;;;;2.40;1.85;;;-1.50;70.50;;;;;;5045040;28;20438;-62
2022/12/14 07:18:49;;;;;;;2.67;1.55;;;-1.50;70.50;;;;;;5044467;28;20380;-65
2022/12/14 07:21:17;;;;;;;3.58;1.55;;;-1.50;70.50;;;;;;5042781;28;20124;-64
2022/12/14 07:23:45;;;;;;;2.40;2.05;;;-1.60;70.40;;;;;;5042754;28;20100;-66
2022/12/14 07:26:14;;;;;;;2.13;1.80;;;-1.60;70.40;;;;;;5068063;28;20029;-66
2022/12/14 07:28:40;;;;;;;2.88;1.80;;;-1.70;70.50;;;;;;5041655;28;20026;-66
2022/12/14 07:31:12;;;;;;;3.10;1.88;;;-1.80;70.50;;;;;;5037412;28;20468;-66
2022/12/14 07:33:38;;;;;;;1.65;1.40;;;-1.80;70.50;;;;;;5049237;28;20017;-63
2022/12/14 07:36:16;;;;;;;2.45;1.70;;;-1.80;70.70;;;;;;5057055;28;20457;-66
2022/12/14 07:38:44;;;;;;;2.17;1.60;;;-1.80;70.80;;;;;;5046019;28;20055;-66
2022/12/14 07:41:16;;;;;;;4.25;2.35;;;-1.90;70.70;;;;;;5055210;28;20529;-65
2022/12/14 07:43:43;;;;;;;3.72;1.70;;;-1.90;70.70;;;;;;5050521;28;20020;-64
2022/12/14 07:46:12;;;;;;;4.43;2.70;;;-1.90;70.60;;;;;;5046393;28;20464;-65
2022/12/14 07:48:41;;;;;;;3.65;1.90;;;-1.90;70.60;;;;;;5050166;28;20427;-64
2022/12/14 07:51:09;;;;;;;2.85;2.33;;;-2.00;70.60;;;;;;5040528;28;20041;-63
2022/12/14 07:53:36;;;;;;;2.38;2.17;;;-2.00;70.60;;;;;;5041667;28;20028;-63
2022/12/14 07:56:08;;;;;;;3.05;1.73;;;-2.00;70.70;;;;;;5041758;28;20551;-66
2022/12/14 07:58:35;;;;;;;2.20;1.53;;;-2.00;70.80;;;;;;5048574;28;20413;-68
2022/12/14 08:01:24;;;;;;;2.15;1.73;;;-2.10;70.70;;;;;;5040265;28;20136;-63
2022/12/14 08:03:55;;;;;;;3.88;1.98;;;-2.10;70.70;;;;;;5046021;28;20452;-65
2022/12/14 08:06:26;;;;;;;2.67;1.95;;;-2.20;70.70;;;;;;5039885;28;20021;-66
2022/12/14 08:08:52;;;;;;;4.30;2.85;;;-2.20;70.70;;;;;;5048396;28;20108;-62
2022/12/14 08:11:21;;;;;;;4.30;2.55;;;-2.20;70.70;;;;;;5052220;28;20036;-63
2022/12/14 08:13:47;;;;;;;8.48;2.40;;;-2.20;70.80;;;;;;5057019;28;20036;-62
2022/12/14 08:16:16;;;;;;;3.10;2.22;;;-2.20;70.80;;;;;;5051763;28;20035;-62
2022/12/14 08:18:42;;;;;;;2.30;1.95;;;-2.20;70.90;;;;;;5056601;28;20029;-61
2022/12/14 08:21:10;;;;;;;2.88;2.13;;;-2.20;70.80;;;;;;5049221;28;20028;-61
2022/12/14 08:23:36;;;;;;;3.00;2.13;;;-2.30;70.80;;;;;;5049931;28;20029;-68
2022/12/14 08:26:04;;;;;;;3.85;1.85;;;-2.30;70.90;;;;;;5052841;28;20033;-67
2022/12/14 08:28:31;;;;;;;4.65;1.85;;;-2.30;71.00;;;;;;5047556;28;20036;-67
2022/12/14 08:31:02;;;;;;;6.07;2.88;;;-2.40;71.00;;;;;;5048638;28;20024;-61
2022/12/14 08:33:27;;;;;;;3.60;2.08;;;-2.40;70.90;;;;;;5034303;28;20026;-67
2022/12/14 08:35:53;;;;;;;5.80;2.20;;;-2.40;70.90;;;;;;5054006;28;20427;-68
2022/12/14 08:38:19;;;;;;;10.10;3.50;;;-2.40;70.80;;;;;;5047542;28;20087;-68
2022/12/14 08:40:45;;;;;;;3.58;2.55;;;-2.40;70.80;;;;;;5045217;28;20136;-67
2022/12/14 08:43:11;;;;;;;5.68;2.97;;;-2.40;70.90;;;;;;5043416;28;20039;-61
2022/12/14 08:45:37;;;;;;;4.40;2.47;;;-2.40;70.80;;;;;;5034949;28;20031;-61
2022/12/14 08:48:03;;;;;;;5.05;2.55;;;-2.40;70.80;;;;;;5043466;28;20068;-61
2022/12/14 08:50:29;;;;;;;2.67;1.98;;;-2.40;70.90;;;;;;5045436;28;20025;-61
2022/12/14 08:52:55;;;;;;;4.93;2.55;;;-2.40;71.00;;;;;;5037007;28;20040;-61
2022/12/14 08:55:22;;;;;;;2.92;2.35;;;-2.40;71.00;;;;;;5042027;28;20033;-63
2022/12/14 08:57:48;;;;;;;2.78;2.33;;;-2.30;71.00;;;;;;5044715;28;20100;-63
2022/12/14 09:00:14;;;;;;;6.00;3.95;;;-2.30;71.00;;;;;;5047533;28;20166;-63
2022/12/14 09:02:40;;;;;;;4.20;3.15;;;-2.30;70.90;;;;;;5047371;28;20448;-63
2022/12/14 09:05:06;;;;;;;3.95;3.10;;;-2.30;70.90;;;;;;5049248;28;20069;-63
2022/12/14 09:07:31;;;;;;;6.50;3.45;;;-2.30;70.80;;;;;;5046572;28;20116;-62
2022/12/14 09:09:57;;;;;;;4.10;2.60;;;-2.30;70.90;;;;;;5048861;28;20448;-62
2022/12/14 09:12:24;;;;;;;6.28;3.20;;;-2.20;70.90;;;;;;5046197;28;20040;-63
2022/12/14 09:14:50;;;;;;;3.42;2.70;;;-2.20;70.80;;;;;;5045324;28;20388;-63
2022/12/14 09:17:17;;;;;;;4.00;2.40;;;-2.20;70.80;;;;;;5046508;28;20029;-63
2022/12/14 09:19:43;;;;;;;5.80;2.92;;;-2.10;70.90;;;;;;5049394;28;20505;-63
2022/12/14 09:22:09;;;;;;;3.80;2.95;;;-2.10;70.90;;;;;;5030430;28;20025;-62
2022/12/14 09:24:36;;;;;;;5.93;3.28;;;-2.00;70.80;;;;;;5048575;28;20111;-63
2022/12/14 09:27:02;;;;;;;3.20;2.50;;;-2.00;70.70;;;;;;5044462;28;20088;-63
2022/12/14 09:29:28;;;;;;;3.40;2.33;;;-1.90;70.70;;;;;;5040472;28;20032;-62
2022/12/14 09:31:54;;;;;;;6.38;3.28;;;-1.80;70.70;;;;;;5044201;28;20033;-62
2022/12/14 09:34:21;;;;;;;6.53;3.15;;;-1.80;70.60;;;;;;5054542;28;20094;-62
2022/12/14 09:36:47;;;;;;;6.22;3.17;;;-1.80;70.50;;;;;;5049025;28;20044;-63
2022/12/14 09:39:13;;;;;;;6.47;2.95;;;-1.70;70.50;;;;;;5038672;28;20051;-63
2022/12/14 09:42:17;;;;;;;6.20;2.58;;;-1.70;70.50;;;;;;5041327;28;20029;-63
2022/12/14 09:44:57;;;;;;;4.13;3.03;;;-1.60;70.40;;;;;;5044512;28;20033;-63
2022/12/14 09:47:42;;;;;;;5.15;2.35;;;-1.60;70.50;;;;;;5046929;28;21288;-63
2022/12/14 09:50:16;;;;;;;5.97;3.80;;;-1.50;70.40;;;;;;5047495;28;20082;-62
2022/12/14 09:52:52;;;;;;;5.60;3.17;;;-1.40;70.60;;;;;;5051578;28;20107;-62
2022/12/14 09:55:28;;;;;;;5.80;3.25;;;-1.40;70.30;;;;;;5046112;28;20037;-62
2022/12/14 09:58:20;;;;;;;3.75;2.83;;;-1.30;70.20;;;;;;5042731;28;20048;-63
2022/12/14 10:00:55;;;;;;;4.03;3.13;;;-1.20;70.10;;;;;;5041225;28;20495;-63
2022/12/14 10:03:47;;;;;;;6.80;3.35;;;-1.10;70.10;;;;;;5049204;28;20087;-63
2022/12/14 10:06:21;;;;;;;5.33;2.83;;;-1.10;70.00;;;;;;5034814;28;20381;-63
2022/12/14 10:08:55;;;;;;;3.72;2.10;;;-1.00;70.00;;;;;;5055038;28;20039;-62
2022/12/14 10:11:41;;;;;;;5.40;3.15;;;-1.00;70.00;;;;;;5035531;28;20022;-62
2022/12/14 10:14:13;;;;;;;4.50;2.60;;;-0.90;70.00;;;;;;5041214;28;20032;-62
2022/12/14 10:16:50;;;;;;;;;;;-0.80;70.10;;;;;;5056074;28;20159;-63
2022/12/14 10:19:35;;;;;;;2.95;2.55;;;-0.70;70.50;;;;;;5036466;28;19912;-61
2022/12/14 10:22:27;;;;;;;3.25;2.47;;;-0.30;70.20;;;;;;5045057;28;20037;-63
2022/12/14 10:25:17;;;;;;;8.20;4.57;;;0.60;68.50;;;;;;5044868;28;20029;-61
2022/12/14 10:27:53;;;;;;;9.23;4.05;;;1.40;66.80;;;;;;5045921;28;20035;-62
2022/12/14 10:30:22;;;;;;;5.63;3.42;;;2.20;65.20;;;;;;5038002;28;20100;-63
2022/12/14 10:33:00;;;;;;;5.97;3.28;;;2.90;63.60;;;;;;5048050;28;20091;-63
2022/12/14 10:35:34;;;;;;;7.57;4.13;;;3.40;62.10;;;;;;5049109;28;20048;-63
2022/12/14 10:38:10;;;;;;;7.43;3.65;;;3.50;61.20;;;;;;5049679;28;20020;-63
2022/12/14 10:40:41;;;;;;;5.47;3.33;;;3.40;61.50;;;;;;5045220;28;20082;-63
2022/12/14 10:43:35;;;;;;;7.13;3.67;;;3.30;62.00;;;;;;5044251;28;20032;-64
2022/12/14 10:46:40;;;;;;;6.30;4.20;;;3.50;62.50;;;;;;5045390;28;20076;-64
2022/12/14 10:49:20;;;;;;;7.63;4.15;;;3.90;61.60;;;;;;5044596;28;20029;-63
2022/12/14 10:52:02;;;;;;;7.20;3.92;;;4.90;61.20;;;;;;5047953;28;20051;-63
2022/12/14 10:54:36;;;;;;;8.13;4.75;;;6.20;58.50;;;;;;5049862;28;20032;-63
2022/12/14 10:57:01;;;;;;;7.32;4.63;;;6.90;56.40;;;;;;5042755;28;20459;-64
2022/12/14 10:59:36;;;;;;;7.95;4.82;;;7.40;55.00;;;;;;5045963;28;20025;-63
2022/12/14 11:02:12;;;;;;;6.05;4.57;;;7.80;53.90;;;;;;5051884;28;20032;-63
2022/12/14 11:04:56;;;;;;;6.40;4.30;;;8.00;52.80;;;;;;5039664;28;20025;-64
2022/12/14 11:07:24;;;;;;;6.60;4.07;;;7.70;52.70;;;;;;5042920;28;20029;-63
2022/12/14 11:09:50;;;;;;;8.25;3.55;;;7.50;53.30;;;;;;5037663;28;20611;-63
2022/12/14 11:12:24;;;;;;;8.50;3.78;;;7.40;53.40;;;;;;5043600;28;20107;-65
2022/12/14 11:14:56;;;;;;;7.43;3.80;;;7.50;53.00;;;;;;5047149;28;20252;-65
2022/12/14 11:17:41;;;;;;;7.15;4.03;;;7.40;52.80;;;;;;5031626;28;20021;-65
2022/12/14 11:20:23;;;;;;;6.95;4.32;;;7.40;53.10;;;;;;5037262;28;20075;-65
2022/12/14 11:22:54;;;;;;;8.60;4.10;;;8.20;53.00;;;;;;5049115;28;20050;-64
2022/12/14 11:25:27;;;;;;;10.23;4.78;;;9.80;52.10;;;;;;5037888;28;20027;-65
2022/12/14 11:27:53;;;;;;;6.85;4.65;;;12.00;47.00;;;;;;5039370;28;20021;-63
2022/12/14 11:30:19;;;;;;;6.25;3.97;;;13.90;43.30;;;;;;5044299;28;20048;-63
2022/12/14 11:32:48;;;;;;;5.20;3.40;;;15.50;40.60;;;;;;5031794;28;20044;-63
2022/12/14 11:35:18;;;;;;;6.95;4.53;;;16.70;37.80;;;;;;5040616;28;20013;-62
2022/12/14 11:37:47;;;;;;;9.77;3.90;;;17.70;35.70;;;;;;5049395;28;20506;-64
2022/12/14 11:40:39;;;;;;;7.53;3.65;;;18.50;34.70;;;;;;5049957;28;20029;-62
2022/12/14 11:43:42;;;;;;;5.93;4.28;;;19.10;32.80;;;;;;5049177;28;20178;-63
2022/12/14 11:46:08;;;;;;;6.05;3.28;;;19.60;32.20;;;;;;5035447;28;20037;-63
2022/12/14 11:48:37;;;;;;;5.97;3.47;;;20.30;31.40;;;;;;5050117;28;20048;-63
2022/12/14 11:51:11;;;;;;;11.40;4.28;;;20.70;30.50;;;;;;5049067;28;20565;-64
2022/12/14 11:53:37;;;;;;;5.47;3.20;;;21.00;30.00;;;;;;5045923;28;20025;-62
2022/12/14 11:56:05;;;;;;;5.10;3.30;;;21.20;29.80;;;;;;5047055;28;20029;-61
2022/12/14 11:58:37;;;;;;;4.03;2.92;;;21.20;29.80;;;;;;5037042;28;20071;-62
2022/12/14 12:01:14;;;;;;;7.03;3.38;;;21.50;29.70;;;;;;5056460;28;20116;-64
2022/12/14 12:03:46;;;;;;;5.55;3.45;;;21.80;29.20;;;;;;5050264;28;20025;-64
2022/12/14 12:06:19;;;;;;;4.55;3.00;;;21.90;29.00;;;;;;5037641;28;20032;-66
2022/12/14 12:08:46;;;;;;;6.47;3.13;;;21.90;28.60;;;;;;5049591;28;20556;-64
2022/12/14 12:11:18;;;;;;;8.52;4.03;;;21.90;28.60;;;;;;5030838;28;20068;-64
2022/12/14 12:13:46;;;;;;;;;;;22.00;28.30;;;;;;5044537;28;20033;-65
2022/12/14 12:16:18;;;;;;;5.40;3.40;;;22.20;28.00;;;;;;5045379;28;19921;-62
2022/12/14 12:18:52;;;;;;;4.78;2.67;;;22.20;28.30;;;;;;5042960;28;20025;-62
2022/12/14 12:21:23;;;;;;;5.50;2.88;;;22.10;27.70;;;;;;5040215;28;20554;-65
2022/12/14 12:24:10;;;;;;;5.80;3.37;;;22.20;27.80;;;;;;5049444;28;20017;-65
2022/12/14 12:26:57;;;;;;;6.50;3.75;;;22.10;27.60;;;;;;5048884;28;20310;-63
2022/12/14 12:29:28;;;;;;;2.70;1.90;;;22.00;27.90;;;;;;5037290;28;20792;-65
2022/12/14 12:32:00;;;;;;;4.53;2.47;;;22.00;27.10;;;;;;5035304;28;20033;-63
2022/12/14 12:34:50;;;;;;;3.53;2.15;;;22.00;26.90;;;;;;5045678;28;20067;-62
2022/12/14 12:37:28;;;;;;;4.50;3.05;;;21.70;26.80;;;;;;5034866;28;20160;-63
2022/12/14 12:40:03;;;;;;;4.65;2.65;;;21.00;27.30;;;;;;5045553;28;20471;-63
2022/12/14 12:42:53;;;;;;;4.10;2.22;;;20.30;27.80;;;;;;5041231;28;20021;-65
2022/12/14 12:45:43;;;;;;;7.10;2.60;;;19.70;28.00;;;;;;5034472;28;20388;-62
2022/12/14 12:48:24;;;;;;;4.30;2.47;;;18.90;28.80;;;;;;5037441;28;20050;-65
2022/12/14 12:50:54;;;;;;;3.65;2.22;;;18.30;29.00;;;;;;5043555;28;20080;-63
2022/12/14 12:53:25;;;;;;;3.25;2.00;;;17.60;29.20;;;;;;5047618;28;20029;-62
2022/12/14 12:55:55;;;;;;;5.35;2.30;;;16.70;29.80;;;;;;5035787;28;20068;-62
2022/12/14 12:58:31;;;;;;;5.50;2.88;;;15.50;31.00;;;;;;5047449;28;20103;-62
2022/12/14 13:01:01;;;;;;;4.82;2.45;;;14.30;32.20;;;;;;5034389;28;20555;-62
2022/12/14 13:03:40;;;;;;;5.40;2.35;;;13.20;33.40;;;;;;5043324;28;20029;-62
2022/12/14 13:06:26;;;;;;;8.32;2.92;;;12.40;34.40;;;;;;5046477;28;20742;-62
2022/12/14 13:09:17;;;;;;;7.32;3.53;;;11.70;35.50;;;;;;5040809;28;20090;-62
2022/12/14 13:11:44;;;;;;;4.97;2.95;;;11.30;36.60;;;;;;5042873;28;20065;-64
2022/12/14 13:14:30;;;;;;;6.32;3.22;;;11.40;36.80;;;;;;5049589;28;20120;-64
2022/12/14 13:16:58;;;;;;;4.97;2.97;;;11.90;36.50;;;;;;5047226;28;20037;-62
2022/12/14 13:19:42;;;;;;;4.10;2.67;;;13.00;35.70;;;;;;5037418;28;20025;-63
2022/12/14 13:22:14;;;;;;;4.90;2.63;;;14.20;34.00;;;;;;5043197;28;20029;-64
2022/12/14 13:24:40;;;;;;;2.78;1.42;;;15.30;32.20;;;;;;5039653;28;20033;-64
2022/12/14 13:27:32;;;;;;;4.72;2.20;;;15.40;31.20;;;;;;5038068;28;20216;-62
2022/12/14 13:30:01;;;;;;;2.08;1.85;;;15.10;31.30;;;;;;5046783;28;20028;-64
2022/12/14 13:33:00;;;;;;;3.55;2.53;;;13.90;32.20;;;;;;5043827;28;20091;-62